sensor_id;sensor_type;location;lat;lon;timestamp;pressure;altitude;pressure_sealevel;temperature;humidity
10832;BME280;5469;48.574;8.768;2022-10-20T00:01:59;95168.28;;;13.73;79.40
10832;BME280;5469;48.574;8.768;2022-10-20T00:04:35;95173.19;;;13.85;77.44
10832;BME280;5469;48.574;8.768;2022-10-20T00:07:12;95166.19;;;13.70;78.69
10832;BME280;5469;48.574;8.768;2022-10-20T00:09:47;95165.94;;;13.91;76.46
10832;BME280;5469;48.574;8.768;2022-10-20T00:12:22;95158.56;;;14.07;75.51
10832;BME280;5469;48.574;8.768;2022-10-20T00:14:57;95160.72;;;14.05;75.50
10832;BME280;5469;48.574;8.768;2022-10-20T00:17:32;95150.63;;;14.02;75.77
10832;BME280;5469;48.574;8.768;2022-10-20T00:20:09;95155.06;;;13.87;76.79
10832;BME280;5469;48.574;8.768;2022-10-20T00:22:45;95157.78;;;13.82;76.45
10832;BME280;5469;48.574;8.768;2022-10-20T00:25:21;95145.38;;;13.72;77.60
10832;BME280;5469;48.574;8.768;2022-10-20T00:27:56;95140.72;;;13.83;76.71
10832;BME280;5469;48.574;8.768;2022-10-20T00:30:32;95146.41;;;13.95;75.37
10832;BME280;5469;48.574;8.768;2022-10-20T00:33:07;95146.94;;;13.97;76.40
10832;BME280;5469;48.574;8.768;2022-10-20T00:35:42;95149.16;;;13.90;75.88
10832;BME280;5469;48.574;8.768;2022-10-20T00:38:22;95151.88;;;13.61;79.02
10832;BME280;5469;48.574;8.768;2022-10-20T00:40:57;95143.38;;;13.35;81.65
10832;BME280;5469;48.574;8.768;2022-10-20T00:43:44;95130.69;;;13.27;82.92
10832;BME280;5469;48.574;8.768;2022-10-20T00:46:22;95116.31;;;13.23;82.50
10832;BME280;5469;48.574;8.768;2022-10-20T00:48:59;95117.16;;;13.18;84.00
10832;BME280;5469;48.574;8.768;2022-10-20T00:51:35;95128.69;;;13.08;84.56
10832;BME280;5469;48.574;8.768;2022-10-20T00:54:15;95132.13;;;12.80;86.30
10832;BME280;5469;48.574;8.768;2022-10-20T00:56:52;95121.50;;;12.80;87.08
10832;BME280;5469;48.574;8.768;2022-10-20T00:59:30;95113.47;;;12.85;88.16
10832;BME280;5469;48.574;8.768;2022-10-20T01:02:10;95106.69;;;12.68;91.11
10832;BME280;5469;48.574;8.768;2022-10-20T01:04:46;95113.06;;;12.67;90.84
10832;BME280;5469;48.574;8.768;2022-10-20T01:07:21;95094.91;;;12.80;91.17
10832;BME280;5469;48.574;8.768;2022-10-20T01:09:59;95100.78;;;12.77;90.78
10832;BME280;5469;48.574;8.768;2022-10-20T01:12:41;95104.13;;;12.87;89.95
10832;BME280;5469;48.574;8.768;2022-10-20T01:15:26;95098.44;;;12.99;88.95
10832;BME280;5469;48.574;8.768;2022-10-20T01:18:10;95086.88;;;12.85;90.46
10832;BME280;5469;48.574;8.768;2022-10-20T01:20:58;95079.31;;;12.97;89.26
10832;BME280;5469;48.574;8.768;2022-10-20T01:24:04;95095.72;;;13.04;88.41
10832;BME280;5469;48.574;8.768;2022-10-20T01:29:52;95083.41;;;13.14;89.05
10832;BME280;5469;48.574;8.768;2022-10-20T01:32:35;95084.06;;;13.00;89.49
10832;BME280;5469;48.574;8.768;2022-10-20T01:35:16;95081.94;;;13.02;90.13
10832;BME280;5469;48.574;8.768;2022-10-20T01:38:03;95077.03;;;13.09;88.35
10832;BME280;5469;48.574;8.768;2022-10-20T01:40:45;95077.78;;;13.15;87.70
10832;BME280;5469;48.574;8.768;2022-10-20T01:43:26;95081.38;;;13.05;88.94
10832;BME280;5469;48.574;8.768;2022-10-20T01:46:04;95070.41;;;13.07;87.44
10832;BME280;5469;48.574;8.768;2022-10-20T01:48:41;95076.59;;;13.02;90.11
10832;BME280;5469;48.574;8.768;2022-10-20T01:51:17;95070.81;;;12.95;89.92
10832;BME280;5469;48.574;8.768;2022-10-20T01:53:52;95063.88;;;12.94;91.99
10832;BME280;5469;48.574;8.768;2022-10-20T01:56:32;95064.59;;;13.05;91.13
10832;BME280;5469;48.574;8.768;2022-10-20T01:59:29;95058.94;;;13.11;87.54
10832;BME280;5469;48.574;8.768;2022-10-20T02:02:21;95050.91;;;13.17;87.09
10832;BME280;5469;48.574;8.768;2022-10-20T02:05:16;95052.03;;;13.10;88.83
10832;BME280;5469;48.574;8.768;2022-10-20T02:07:53;95052.25;;;12.90;92.10
10832;BME280;5469;48.574;8.768;2022-10-20T02:10:36;95045.94;;;12.81;92.94
10832;BME280;5469;48.574;8.768;2022-10-20T02:13:18;95045.88;;;12.86;92.64
10832;BME280;5469;48.574;8.768;2022-10-20T02:15:56;95042.25;;;12.77;93.13
10832;BME280;5469;48.574;8.768;2022-10-20T02:18:37;95041.69;;;12.80;93.24
10832;BME280;5469;48.574;8.768;2022-10-20T02:21:14;95037.69;;;12.82;93.04
10832;BME280;5469;48.574;8.768;2022-10-20T02:23:50;95048.97;;;12.98;89.69
10832;BME280;5469;48.574;8.768;2022-10-20T02:26:27;95041.66;;;12.85;91.16
10832;BME280;5469;48.574;8.768;2022-10-20T02:29:09;95043.63;;;13.27;85.59
10832;BME280;5469;48.574;8.768;2022-10-20T02:31:47;95039.09;;;13.28;85.94
10832;BME280;5469;48.574;8.768;2022-10-20T02:34:26;95035.28;;;13.10;87.89
10832;BME280;5469;48.574;8.768;2022-10-20T02:37:01;95032.53;;;12.91;89.88
10832;BME280;5469;48.574;8.768;2022-10-20T02:39:36;95028.72;;;13.02;87.92
10832;BME280;5469;48.574;8.768;2022-10-20T02:42:11;95025.16;;;12.83;89.55
10832;BME280;5469;48.574;8.768;2022-10-20T02:44:48;95026.94;;;12.93;89.03
10832;BME280;5469;48.574;8.768;2022-10-20T02:47:23;95027.22;;;12.91;89.77
10832;BME280;5469;48.574;8.768;2022-10-20T02:49:59;95019.75;;;12.93;90.08
10832;BME280;5469;48.574;8.768;2022-10-20T02:52:35;95024.88;;;13.14;86.95
10832;BME280;5469;48.574;8.768;2022-10-20T02:55:10;95020.78;;;12.97;89.85
10832;BME280;5469;48.574;8.768;2022-10-20T02:57:45;95021.91;;;12.91;90.43
10832;BME280;5469;48.574;8.768;2022-10-20T03:00:22;95025.28;;;12.97;90.25
10832;BME280;5469;48.574;8.768;2022-10-20T03:02:58;95025.66;;;12.90;90.40
10832;BME280;5469;48.574;8.768;2022-10-20T03:05:40;95022.81;;;13.05;88.40
10832;BME280;5469;48.574;8.768;2022-10-20T03:08:17;95024.50;;;12.96;90.31
10832;BME280;5469;48.574;8.768;2022-10-20T03:10:52;95018.97;;;13.17;88.04
10832;BME280;5469;48.574;8.768;2022-10-20T03:13:27;95020.75;;;13.02;89.02
10832;BME280;5469;48.574;8.768;2022-10-20T03:16:02;95010.94;;;13.22;86.85
10832;BME280;5469;48.574;8.768;2022-10-20T03:18:37;95015.56;;;12.87;90.67
10832;BME280;5469;48.574;8.768;2022-10-20T03:21:13;95013.03;;;13.01;89.67
10832;BME280;5469;48.574;8.768;2022-10-20T03:23:53;95010.03;;;13.07;89.35
10832;BME280;5469;48.574;8.768;2022-10-20T03:26:29;95021.13;;;13.15;87.99
10832;BME280;5469;48.574;8.768;2022-10-20T03:29:04;95021.91;;;13.15;86.86
10832;BME280;5469;48.574;8.768;2022-10-20T03:31:39;95017.22;;;13.07;88.47
10832;BME280;5469;48.574;8.768;2022-10-20T03:34:14;95007.06;;;12.85;91.46
10832;BME280;5469;48.574;8.768;2022-10-20T03:36:52;95011.50;;;13.19;86.29
10832;BME280;5469;48.574;8.768;2022-10-20T03:39:27;95009.41;;;13.16;87.62
10832;BME280;5469;48.574;8.768;2022-10-20T03:42:02;95006.38;;;13.27;84.90
10832;BME280;5469;48.574;8.768;2022-10-20T03:44:37;95005.09;;;13.20;87.84
10832;BME280;5469;48.574;8.768;2022-10-20T03:47:12;95011.41;;;13.29;86.41
10832;BME280;5469;48.574;8.768;2022-10-20T03:49:47;95013.00;;;13.30;86.35
10832;BME280;5469;48.574;8.768;2022-10-20T03:52:23;94999.84;;;13.39;85.77
10832;BME280;5469;48.574;8.768;2022-10-20T03:54:59;94997.00;;;13.30;85.48
10832;BME280;5469;48.574;8.768;2022-10-20T03:57:34;94986.31;;;13.11;87.38
10832;BME280;5469;48.574;8.768;2022-10-20T04:00:11;94993.31;;;13.02;89.45
10832;BME280;5469;48.574;8.768;2022-10-20T04:02:47;95000.03;;;12.94;90.82
10832;BME280;5469;48.574;8.768;2022-10-20T04:05:24;94994.41;;;13.01;90.60
10832;BME280;5469;48.574;8.768;2022-10-20T04:08:00;94987.72;;;13.03;89.65
10832;BME280;5469;48.574;8.768;2022-10-20T04:10:36;94989.63;;;13.22;87.72
10832;BME280;5469;48.574;8.768;2022-10-20T04:13:13;94989.97;;;12.91;90.58
10832;BME280;5469;48.574;8.768;2022-10-20T04:15:48;94994.50;;;12.90;92.18
10832;BME280;5469;48.574;8.768;2022-10-20T04:18:23;94996.84;;;12.97;90.21
10832;BME280;5469;48.574;8.768;2022-10-20T04:20:58;94992.47;;;13.06;88.96
10832;BME280;5469;48.574;8.768;2022-10-20T04:23:35;94982.22;;;13.19;87.24
10832;BME280;5469;48.574;8.768;2022-10-20T04:26:12;94987.72;;;13.03;89.45
10832;BME280;5469;48.574;8.768;2022-10-20T04:28:47;94983.53;;;12.97;90.31
10832;BME280;5469;48.574;8.768;2022-10-20T04:31:22;94979.13;;;12.87;92.16
10832;BME280;5469;48.574;8.768;2022-10-20T04:33:57;94980.47;;;13.09;89.65
10832;BME280;5469;48.574;8.768;2022-10-20T04:36:32;94965.75;;;12.93;92.30
10832;BME280;5469;48.574;8.768;2022-10-20T04:39:09;94969.09;;;13.03;92.06
10832;BME280;5469;48.574;8.768;2022-10-20T04:41:44;94961.50;;;12.92;92.13
10832;BME280;5469;48.574;8.768;2022-10-20T04:44:19;94973.69;;;12.98;92.60
10832;BME280;5469;48.574;8.768;2022-10-20T04:46:55;94961.13;;;13.03;90.69
10832;BME280;5469;48.574;8.768;2022-10-20T04:49:31;94961.69;;;13.00;90.92
10832;BME280;5469;48.574;8.768;2022-10-20T04:52:06;94953.88;;;12.85;94.09
10832;BME280;5469;48.574;8.768;2022-10-20T04:54:43;94950.69;;;13.07;91.54
10832;BME280;5469;48.574;8.768;2022-10-20T04:57:17;94951.72;;;13.11;91.27
10832;BME280;5469;48.574;8.768;2022-10-20T04:59:52;94962.25;;;12.97;92.13
10832;BME280;5469;48.574;8.768;2022-10-20T05:02:27;94950.94;;;13.10;91.27
10832;BME280;5469;48.574;8.768;2022-10-20T05:05:03;94954.34;;;12.92;94.04
10832;BME280;5469;48.574;8.768;2022-10-20T05:07:38;94946.72;;;13.04;91.73
10832;BME280;5469;48.574;8.768;2022-10-20T05:10:14;94936.53;;;13.11;91.62
10832;BME280;5469;48.574;8.768;2022-10-20T05:12:51;94933.94;;;13.06;91.27
10832;BME280;5469;48.574;8.768;2022-10-20T05:15:26;94930.97;;;13.32;87.67
10832;BME280;5469;48.574;8.768;2022-10-20T05:18:01;94938.28;;;13.21;90.33
10832;BME280;5469;48.574;8.768;2022-10-20T05:20:39;94927.47;;;13.12;90.13
10832;BME280;5469;48.574;8.768;2022-10-20T05:23:14;94923.63;;;13.24;90.11
10832;BME280;5469;48.574;8.768;2022-10-20T05:25:51;94919.81;;;13.30;89.20
10832;BME280;5469;48.574;8.768;2022-10-20T05:28:26;94915.31;;;13.49;86.25
10832;BME280;5469;48.574;8.768;2022-10-20T05:31:02;94913.53;;;13.21;90.60
10832;BME280;5469;48.574;8.768;2022-10-20T05:33:42;94914.28;;;13.26;89.09
10832;BME280;5469;48.574;8.768;2022-10-20T05:36:20;94911.63;;;13.26;88.48
10832;BME280;5469;48.574;8.768;2022-10-20T05:38:56;94906.63;;;13.20;89.28
10832;BME280;5469;48.574;8.768;2022-10-20T05:41:34;94909.47;;;13.47;86.50
10832;BME280;5469;48.574;8.768;2022-10-20T05:44:12;94898.22;;;13.69;86.20
10832;BME280;5469;48.574;8.768;2022-10-20T05:46:47;94903.94;;;13.63;87.84
10832;BME280;5469;48.574;8.768;2022-10-20T05:49:22;94904.59;;;13.11;91.85
10832;BME280;5469;48.574;8.768;2022-10-20T05:51:57;94914.91;;;12.94;93.68
10832;BME280;5469;48.574;8.768;2022-10-20T05:54:33;94911.19;;;12.95;93.22
10832;BME280;5469;48.574;8.768;2022-10-20T05:57:10;94907.84;;;13.08;92.95
10832;BME280;5469;48.574;8.768;2022-10-20T05:59:47;94912.72;;;13.01;92.39
10832;BME280;5469;48.574;8.768;2022-10-20T06:02:22;94921.16;;;13.08;92.72
10832;BME280;5469;48.574;8.768;2022-10-20T06:04:56;94923.66;;;13.00;93.66
10832;BME280;5469;48.574;8.768;2022-10-20T06:07:32;94925.69;;;12.84;94.61
10832;BME280;5469;48.574;8.768;2022-10-20T06:10:08;94931.00;;;12.84;95.32
10832;BME280;5469;48.574;8.768;2022-10-20T06:12:48;94920.13;;;13.04;91.77
10832;BME280;5469;48.574;8.768;2022-10-20T06:15:23;94927.34;;;13.23;90.01
10832;BME280;5469;48.574;8.768;2022-10-20T06:17:59;94933.13;;;13.30;89.79
10832;BME280;5469;48.574;8.768;2022-10-20T06:20:34;94933.03;;;13.16;90.81
10832;BME280;5469;48.574;8.768;2022-10-20T06:23:09;94937.56;;;13.16;91.23
10832;BME280;5469;48.574;8.768;2022-10-20T06:25:44;94929.84;;;13.14;90.19
10832;BME280;5469;48.574;8.768;2022-10-20T06:28:20;94932.34;;;13.05;92.04
10832;BME280;5469;48.574;8.768;2022-10-20T06:30:57;94920.34;;;13.08;93.50
10832;BME280;5469;48.574;8.768;2022-10-20T06:33:33;94933.94;;;13.06;94.20
10832;BME280;5469;48.574;8.768;2022-10-20T06:36:09;94938.28;;;13.21;91.48
10832;BME280;5469;48.574;8.768;2022-10-20T06:38:45;94942.66;;;13.36;90.92
10832;BME280;5469;48.574;8.768;2022-10-20T06:41:21;94935.78;;;13.30;91.48
10832;BME280;5469;48.574;8.768;2022-10-20T06:43:58;94935.97;;;13.58;88.46
10832;BME280;5469;48.574;8.768;2022-10-20T06:46:35;94937.59;;;13.53;89.79
10832;BME280;5469;48.574;8.768;2022-10-20T06:49:14;94940.63;;;13.66;88.29
10832;BME280;5469;48.574;8.768;2022-10-20T06:51:50;94944.94;;;13.62;89.32
10832;BME280;5469;48.574;8.768;2022-10-20T06:54:25;94942.66;;;13.74;88.40
10832;BME280;5469;48.574;8.768;2022-10-20T06:57:00;94938.19;;;13.88;85.88
10832;BME280;5469;48.574;8.768;2022-10-20T06:59:37;94935.13;;;13.95;84.36
10832;BME280;5469;48.574;8.768;2022-10-20T07:02:12;94931.00;;;13.70;89.48
10832;BME280;5469;48.574;8.768;2022-10-20T07:04:49;94933.00;;;13.78;89.32
10832;BME280;5469;48.574;8.768;2022-10-20T07:07:24;94940.84;;;13.88;88.93
10832;BME280;5469;48.574;8.768;2022-10-20T07:10:00;94931.94;;;14.12;86.63
10832;BME280;5469;48.574;8.768;2022-10-20T07:12:35;94941.00;;;14.11;87.67
10832;BME280;5469;48.574;8.768;2022-10-20T07:15:11;94939.09;;;14.30;86.31
10832;BME280;5469;48.574;8.768;2022-10-20T07:17:46;94944.97;;;14.13;88.43
10832;BME280;5469;48.574;8.768;2022-10-20T07:20:22;94939.31;;;14.01;90.23
10832;BME280;5469;48.574;8.768;2022-10-20T07:22:57;94926.13;;;14.10;89.85
10832;BME280;5469;48.574;8.768;2022-10-20T07:25:32;94912.44;;;14.30;87.85
10832;BME280;5469;48.574;8.768;2022-10-20T07:28:07;94911.69;;;14.43;86.62
10832;BME280;5469;48.574;8.768;2022-10-20T07:30:45;94921.16;;;14.50;87.06
10832;BME280;5469;48.574;8.768;2022-10-20T07:33:20;94923.72;;;14.41;88.48
10832;BME280;5469;48.574;8.768;2022-10-20T07:35:55;94927.94;;;14.61;85.72
10832;BME280;5469;48.574;8.768;2022-10-20T07:38:30;94927.53;;;14.68;85.88
10832;BME280;5469;48.574;8.768;2022-10-20T07:41:06;94918.34;;;14.60;87.37
10832;BME280;5469;48.574;8.768;2022-10-20T07:43:42;94924.91;;;14.81;84.95
10832;BME280;5469;48.574;8.768;2022-10-20T07:46:20;94921.63;;;14.84;85.46
10832;BME280;5469;48.574;8.768;2022-10-20T07:48:55;94922.00;;;14.78;87.16
10832;BME280;5469;48.574;8.768;2022-10-20T07:51:30;94912.16;;;14.92;85.46
10832;BME280;5469;48.574;8.768;2022-10-20T07:54:08;94913.13;;;15.10;84.86
10832;BME280;5469;48.574;8.768;2022-10-20T07:56:45;94923.19;;;15.13;86.32
10832;BME280;5469;48.574;8.768;2022-10-20T07:59:20;94926.56;;;15.05;87.37
10832;BME280;5469;48.574;8.768;2022-10-20T08:01:58;94911.72;;;15.26;86.88
10832;BME280;5469;48.574;8.768;2022-10-20T08:04:34;94900.03;;;15.36;86.83
10832;BME280;5469;48.574;8.768;2022-10-20T08:07:09;94905.31;;;15.50;86.32
10832;BME280;5469;48.574;8.768;2022-10-20T08:09:45;94900.81;;;15.37;89.84
10832;BME280;5469;48.574;8.768;2022-10-20T08:12:20;94901.78;;;15.41;87.35
10832;BME280;5469;48.574;8.768;2022-10-20T08:14:54;94893.28;;;15.39;87.06
10832;BME280;5469;48.574;8.768;2022-10-20T08:17:31;94918.00;;;15.44;86.68
10832;BME280;5469;48.574;8.768;2022-10-20T08:20:07;94911.06;;;15.57;86.63
10832;BME280;5469;48.574;8.768;2022-10-20T08:22:43;94906.56;;;15.66;86.23
10832;BME280;5469;48.574;8.768;2022-10-20T08:25:22;94903.16;;;15.52;85.88
10832;BME280;5469;48.574;8.768;2022-10-20T08:27:57;94906.69;;;15.75;85.68
10832;BME280;5469;48.574;8.768;2022-10-20T08:30:32;94914.63;;;15.52;85.98
10832;BME280;5469;48.574;8.768;2022-10-20T08:33:09;94910.44;;;15.60;85.72
10832;BME280;5469;48.574;8.768;2022-10-20T08:35:44;94909.28;;;16.11;83.78
10832;BME280;5469;48.574;8.768;2022-10-20T08:38:19;94907.56;;;16.15;82.79
10832;BME280;5469;48.574;8.768;2022-10-20T08:40:54;94908.78;;;16.32;82.42
10832;BME280;5469;48.574;8.768;2022-10-20T08:43:31;94940.47;;;15.93;85.37
10832;BME280;5469;48.574;8.768;2022-10-20T08:46:08;94937.66;;;15.99;84.27
10832;BME280;5469;48.574;8.768;2022-10-20T08:48:47;94940.50;;;16.02;83.92
10832;BME280;5469;48.574;8.768;2022-10-20T08:51:25;94921.31;;;16.00;83.84
10832;BME280;5469;48.574;8.768;2022-10-20T08:54:03;94930.22;;;16.18;82.92
10832;BME280;5469;48.574;8.768;2022-10-20T08:56:40;94933.56;;;16.24;81.82
10832;BME280;5469;48.574;8.768;2022-10-20T08:59:24;94937.22;;;16.50;81.60
10832;BME280;5469;48.574;8.768;2022-10-20T09:02:01;94939.16;;;16.13;81.25
10832;BME280;5469;48.574;8.768;2022-10-20T09:04:42;94932.22;;;15.90;83.41
10832;BME280;5469;48.574;8.768;2022-10-20T09:07:23;94920.75;;;16.34;81.33
10832;BME280;5469;48.574;8.768;2022-10-20T09:10:06;94949.56;;;16.37;81.80
10832;BME280;5469;48.574;8.768;2022-10-20T09:12:49;94946.28;;;16.18;82.17
10832;BME280;5469;48.574;8.768;2022-10-20T09:15:25;94953.50;;;15.95;83.28
10832;BME280;5469;48.574;8.768;2022-10-20T09:18:04;94952.44;;;15.96;83.17
10832;BME280;5469;48.574;8.768;2022-10-20T09:20:46;94953.81;;;16.16;82.56
10832;BME280;5469;48.574;8.768;2022-10-20T09:23:24;94961.00;;;16.29;82.24
10832;BME280;5469;48.574;8.768;2022-10-20T09:26:02;94968.09;;;16.11;83.80
10832;BME280;5469;48.574;8.768;2022-10-20T09:28:37;94960.69;;;16.08;83.43
10832;BME280;5469;48.574;8.768;2022-10-20T09:31:23;94960.38;;;16.32;83.50
10832;BME280;5469;48.574;8.768;2022-10-20T09:34:18;94942.09;;;16.57;81.62
10832;BME280;5469;48.574;8.768;2022-10-20T09:37:00;94939.81;;;16.73;80.93
10832;BME280;5469;48.574;8.768;2022-10-20T09:39:41;94940.19;;;16.80;81.12
10832;BME280;5469;48.574;8.768;2022-10-20T09:42:21;94941.28;;;17.19;80.15
10832;BME280;5469;48.574;8.768;2022-10-20T09:44:59;94943.47;;;17.17;79.32
10832;BME280;5469;48.574;8.768;2022-10-20T09:47:36;94954.53;;;17.24;80.17
10832;BME280;5469;48.574;8.768;2022-10-20T09:50:22;94942.59;;;16.90;79.79
10832;BME280;5469;48.574;8.768;2022-10-20T09:53:04;94956.72;;;17.22;79.98
10832;BME280;5469;48.574;8.768;2022-10-20T09:55:47;94950.19;;;16.97;80.70
10832;BME280;5469;48.574;8.768;2022-10-20T09:58:26;94968.63;;;16.98;80.95
10832;BME280;5469;48.574;8.768;2022-10-20T10:01:03;94962.38;;;17.12;81.37
10832;BME280;5469;48.574;8.768;2022-10-20T10:03:41;94963.00;;;17.09;81.19
10832;BME280;5469;48.574;8.768;2022-10-20T10:06:27;94962.13;;;17.39;79.57
10832;BME280;5469;48.574;8.768;2022-10-20T10:09:23;94962.19;;;17.57;79.09
10832;BME280;5469;48.574;8.768;2022-10-20T10:12:01;94956.94;;;17.43;79.27
10832;BME280;5469;48.574;8.768;2022-10-20T10:14:47;94956.78;;;17.39;79.21
10832;BME280;5469;48.574;8.768;2022-10-20T10:17:31;94971.56;;;17.28;80.47
10832;BME280;5469;48.574;8.768;2022-10-20T10:20:28;94955.09;;;17.03;81.06
10832;BME280;5469;48.574;8.768;2022-10-20T10:23:13;94950.25;;;17.14;80.31
10832;BME280;5469;48.574;8.768;2022-10-20T10:25:53;94956.56;;;17.18;80.85
10832;BME280;5469;48.574;8.768;2022-10-20T10:28:32;94952.47;;;17.21;80.36
10832;BME280;5469;48.574;8.768;2022-10-20T10:31:09;94937.84;;;17.27;79.97
10832;BME280;5469;48.574;8.768;2022-10-20T10:33:53;94937.38;;;17.34;78.86
10832;BME280;5469;48.574;8.768;2022-10-20T10:36:31;94950.94;;;17.29;80.76
10832;BME280;5469;48.574;8.768;2022-10-20T10:39:10;94948.25;;;17.37;81.37
10832;BME280;5469;48.574;8.768;2022-10-20T10:41:55;94947.03;;;17.61;78.74
10832;BME280;5469;48.574;8.768;2022-10-20T10:44:42;94954.28;;;17.52;79.21
10832;BME280;5469;48.574;8.768;2022-10-20T10:47:35;94950.03;;;17.51;80.70
10832;BME280;5469;48.574;8.768;2022-10-20T10:50:36;94945.91;;;17.53;80.21
10832;BME280;5469;48.574;8.768;2022-10-20T10:53:20;94951.31;;;17.71;80.04
10832;BME280;5469;48.574;8.768;2022-10-20T10:56:03;94940.75;;;17.74;79.53
10832;BME280;5469;48.574;8.768;2022-10-20T10:59:03;94942.47;;;17.79;79.00
10832;BME280;5469;48.574;8.768;2022-10-20T11:01:46;94945.78;;;17.50;81.14
10832;BME280;5469;48.574;8.768;2022-10-20T11:04:51;94946.41;;;17.46;80.14
10832;BME280;5469;48.574;8.768;2022-10-20T11:07:37;94952.38;;;17.43;80.72
10832;BME280;5469;48.574;8.768;2022-10-20T11:10:20;94934.78;;;17.77;79.03
10832;BME280;5469;48.574;8.768;2022-10-20T11:13:16;94928.81;;;17.80;78.56
10832;BME280;5469;48.574;8.768;2022-10-20T11:16:07;94915.06;;;18.08;78.15
10832;BME280;5469;48.574;8.768;2022-10-20T11:22:09;94909.53;;;18.22;76.11
10832;BME280;5469;48.574;8.768;2022-10-20T11:24:49;94909.06;;;18.20;77.16
10832;BME280;5469;48.574;8.768;2022-10-20T11:27:32;94906.84;;;18.22;76.66
10832;BME280;5469;48.574;8.768;2022-10-20T11:30:14;94906.72;;;17.83;79.23
10832;BME280;5469;48.574;8.768;2022-10-20T11:32:58;94907.03;;;17.90;79.45
10832;BME280;5469;48.574;8.768;2022-10-20T11:35:40;94912.09;;;17.83;79.05
10832;BME280;5469;48.574;8.768;2022-10-20T11:38:22;94901.00;;;17.76;79.40
10832;BME280;5469;48.574;8.768;2022-10-20T11:42:40;94887.78;;;18.06;78.22
10832;BME280;5469;48.574;8.768;2022-10-20T11:44:22;94890.31;;;18.11;79.38
10832;BME280;5469;48.574;8.768;2022-10-20T11:47:04;94883.72;;;18.47;76.84
10832;BME280;5469;48.574;8.768;2022-10-20T11:49:43;94900.06;;;18.24;78.06
10832;BME280;5469;48.574;8.768;2022-10-20T11:52:43;94902.28;;;18.05;78.80
10832;BME280;5469;48.574;8.768;2022-10-20T11:55:48;94910.47;;;18.17;78.24
10832;BME280;5469;48.574;8.768;2022-10-20T11:58:42;94899.41;;;18.27;78.50
10832;BME280;5469;48.574;8.768;2022-10-20T12:01:29;94893.44;;;18.13;78.58
10832;BME280;5469;48.574;8.768;2022-10-20T12:10:28;94873.72;;;18.73;74.93
10832;BME280;5469;48.574;8.768;2022-10-20T12:13:17;94866.75;;;18.72;76.54
10832;BME280;5469;48.574;8.768;2022-10-20T12:15:56;94863.47;;;18.67;77.62
10832;BME280;5469;48.574;8.768;2022-10-20T12:18:33;94859.91;;;18.92;75.55
10832;BME280;5469;48.574;8.768;2022-10-20T12:21:10;94854.66;;;18.96;73.97
10832;BME280;5469;48.574;8.768;2022-10-20T12:23:56;94859.56;;;19.24;74.29
10832;BME280;5469;48.574;8.768;2022-10-20T12:29:59;94856.91;;;18.94;74.32
10832;BME280;5469;48.574;8.768;2022-10-20T12:32:36;94872.75;;;18.69;75.23
10832;BME280;5469;48.574;8.768;2022-10-20T12:38:41;94846.78;;;19.20;75.16
10832;BME280;5469;48.574;8.768;2022-10-20T12:41:28;94836.81;;;19.42;74.88
10832;BME280;5469;48.574;8.768;2022-10-20T12:44:13;94809.50;;;19.82;73.21
10832;BME280;5469;48.574;8.768;2022-10-20T12:46:53;94824.69;;;19.78;72.98
10832;BME280;5469;48.574;8.768;2022-10-20T12:49:34;94801.94;;;19.54;75.77
10832;BME280;5469;48.574;8.768;2022-10-20T12:52:18;94794.16;;;19.61;77.15
10832;BME280;5469;48.574;8.768;2022-10-20T12:54:58;94792.47;;;19.90;76.90
10832;BME280;5469;48.574;8.768;2022-10-20T12:57:39;94793.22;;;19.57;77.62
10832;BME280;5469;48.574;8.768;2022-10-20T13:03:41;94826.88;;;18.92;80.54
10832;BME280;5469;48.574;8.768;2022-10-20T13:06:39;94836.41;;;18.81;79.59
10832;BME280;5469;48.574;8.768;2022-10-20T13:09:22;94829.09;;;18.90;80.98
10832;BME280;5469;48.574;8.768;2022-10-20T13:12:00;94826.34;;;18.69;80.79
10832;BME280;5469;48.574;8.768;2022-10-20T13:14:49;94828.81;;;18.83;81.35
10832;BME280;5469;48.574;8.768;2022-10-20T13:17:47;94828.53;;;18.75;80.74
10832;BME280;5469;48.574;8.768;2022-10-20T13:20:37;94837.63;;;18.92;78.68
10832;BME280;5469;48.574;8.768;2022-10-20T13:23:15;94847.31;;;18.75;79.74
10832;BME280;5469;48.574;8.768;2022-10-20T13:25:54;94841.63;;;18.39;82.82
10832;BME280;5469;48.574;8.768;2022-10-20T13:28:31;94844.38;;;18.21;83.24
10832;BME280;5469;48.574;8.768;2022-10-20T13:31:15;94859.38;;;18.05;84.34
10832;BME280;5469;48.574;8.768;2022-10-20T13:34:02;94868.50;;;18.21;82.80
10832;BME280;5469;48.574;8.768;2022-10-20T13:36:55;94871.56;;;17.94;84.43
10832;BME280;5469;48.574;8.768;2022-10-20T13:39:42;94837.03;;;17.83;85.28
10832;BME280;5469;48.574;8.768;2022-10-20T13:42:30;94855.63;;;17.88;83.59
10832;BME280;5469;48.574;8.768;2022-10-20T13:45:13;94845.16;;;18.13;81.94
10832;BME280;5469;48.574;8.768;2022-10-20T13:48:01;94844.69;;;18.20;80.65
10832;BME280;5469;48.574;8.768;2022-10-20T13:50:41;94850.13;;;18.41;79.56
10832;BME280;5469;48.574;8.768;2022-10-20T13:53:22;94855.72;;;18.18;80.65
10832;BME280;5469;48.574;8.768;2022-10-20T13:56:03;94848.91;;;18.29;79.19
10832;BME280;5469;48.574;8.768;2022-10-20T13:58:39;94839.41;;;18.41;77.74
10832;BME280;5469;48.574;8.768;2022-10-20T14:01:17;94830.41;;;18.37;78.53
10832;BME280;5469;48.574;8.768;2022-10-20T14:03:58;94829.44;;;18.50;78.12
10832;BME280;5469;48.574;8.768;2022-10-20T14:06:36;94826.22;;;18.18;78.67
10832;BME280;5469;48.574;8.768;2022-10-20T14:09:18;94811.53;;;18.24;78.35
10832;BME280;5469;48.574;8.768;2022-10-20T14:11:57;94819.63;;;18.07;80.18
10832;BME280;5469;48.574;8.768;2022-10-20T14:14:35;94800.69;;;18.12;80.13
10832;BME280;5469;48.574;8.768;2022-10-20T14:17:19;94795.09;;;18.34;77.67
10832;BME280;5469;48.574;8.768;2022-10-20T14:20:19;94803.50;;;18.24;79.51
10832;BME280;5469;48.574;8.768;2022-10-20T14:22:57;94807.56;;;18.30;78.03
10832;BME280;5469;48.574;8.768;2022-10-20T14:25:34;94804.41;;;18.28;79.57
10832;BME280;5469;48.574;8.768;2022-10-20T14:28:18;94793.75;;;18.11;80.66
10832;BME280;5469;48.574;8.768;2022-10-20T14:30:54;94796.44;;;18.02;80.22
10832;BME280;5469;48.574;8.768;2022-10-20T14:33:32;94794.25;;;17.96;80.27
10832;BME280;5469;48.574;8.768;2022-10-20T14:36:18;94798.66;;;18.00;81.59
10832;BME280;5469;48.574;8.768;2022-10-20T14:38:56;94801.34;;;17.92;82.28